Time;durP1;ratioP1;P1;durP2;ratioP2;P2;SDS_P1;SDS_P2;PMS_P1;PMS_P2;Temp;Humidity;BMP_temperature;BMP_pressure;BME280_temperature;BME280_humidity;BME280_pressure;Samples;Min_cycle;Max_cycle;Signal;HPM_P1;HPM_P2
2021/08/27 00:01:52;;;;;;;4.25;3.20;;;;;;;11.48;100.00;95681.00;5033588;28;20417;-75
2021/08/27 00:04:18;;;;;;;5.67;3.60;;;;;;;11.46;100.00;95688.06;5033525;28;20411;-75
2021/08/27 00:06:43;;;;;;;12.10;3.70;;;;;;;11.41;100.00;95685.78;5033089;28;20784;-75
2021/08/27 00:09:08;;;;;;;5.03;3.50;;;;;;;11.38;100.00;95694.63;5033299;28;20423;-75
2021/08/27 00:11:34;;;;;;;6.90;3.88;;;;;;;11.22;100.00;95691.38;5033433;28;20418;-75
2021/08/27 00:14:00;;;;;;;5.07;3.17;;;;;;;11.32;100.00;95684.66;5032181;28;20435;-75
2021/08/27 00:16:26;;;;;;;4.55;2.97;;;;;;;11.31;100.00;95676.94;5032537;28;20447;-75
2021/08/27 00:18:52;;;;;;;7.32;3.90;;;;;;;11.12;100.00;95672.16;5033516;28;20780;-76
2021/08/27 00:21:17;;;;;;;5.45;3.25;;;;;;;11.27;100.00;95673.75;5033468;28;20469;-75
2021/08/27 00:23:43;;;;;;;7.93;3.10;;;;;;;11.34;100.00;95667.22;5033136;28;20446;-75
2021/08/27 00:26:08;;;;;;;6.03;3.50;;;;;;;11.41;100.00;95674.59;5031505;28;20497;-75
2021/08/27 00:28:33;;;;;;;6.97;3.37;;;;;;;11.41;100.00;95684.97;5032531;28;20415;-75
2021/08/27 00:30:59;;;;;;;5.55;3.25;;;;;;;11.42;100.00;95676.22;5033169;28;20415;-75
2021/08/27 00:33:26;;;;;;;5.35;3.10;;;;;;;11.33;100.00;95670.75;5031619;28;20789;-75
2021/08/27 00:35:52;;;;;;;6.60;3.65;;;;;;;11.26;100.00;95672.09;5032043;28;20421;-75
2021/08/27 00:38:18;;;;;;;6.88;3.67;;;;;;;11.35;100.00;95681.03;5032778;28;20423;-75
2021/08/27 00:40:44;;;;;;;4.18;3.30;;;;;;;11.30;100.00;95676.13;5032388;28;20419;-75
2021/08/27 00:43:13;;;;;;;4.70;3.35;;;;;;;11.37;100.00;95674.78;5032765;28;20451;-75
2021/08/27 00:45:38;;;;;;;6.82;3.45;;;;;;;11.27;100.00;95678.09;5031174;28;20466;-75
2021/08/27 00:48:04;;;;;;;5.57;3.80;;;;;;;11.32;100.00;95676.03;5031378;28;20462;-75
2021/08/27 00:50:31;;;;;;;4.75;3.20;;;;;;;11.19;100.00;95676.00;5034296;28;20423;-75
2021/08/27 00:52:57;;;;;;;5.35;3.40;;;;;;;11.24;100.00;95676.56;5036911;28;20506;-75
2021/08/27 00:55:22;;;;;;;4.43;3.30;;;;;;;11.31;100.00;95675.22;5035194;28;20509;-76
2021/08/27 00:57:48;;;;;;;5.13;3.45;;;;;;;11.37;100.00;95672.19;5031508;28;20423;-75
2021/08/27 01:00:14;;;;;;;4.77;3.00;;;;;;;11.41;100.00;95682.38;5032635;28;20943;-75
2021/08/27 01:02:40;;;;;;;5.20;2.80;;;;;;;11.43;100.00;95680.50;5032567;28;20454;-75
2021/08/27 01:05:07;;;;;;;4.25;3.00;;;;;;;11.45;100.00;95679.44;5032085;28;20442;-75
2021/08/27 01:07:43;;;;;;;4.25;3.22;;;;;;;11.53;100.00;95679.78;5031403;28;20430;-75
2021/08/27 01:10:15;;;;;;;6.40;3.05;;;;;;;11.47;100.00;95669.00;5031151;28;20418;-75
2021/08/27 01:12:45;;;;;;;5.10;3.20;;;;;;;11.32;100.00;95676.88;5032298;28;20427;-75
2021/08/27 01:15:15;;;;;;;6.53;3.17;;;;;;;11.32;100.00;95681.22;5032120;28;20426;-75
2021/08/27 01:17:45;;;;;;;6.13;3.60;;;;;;;11.22;100.00;95688.78;5032385;28;20514;-75
2021/08/27 01:20:32;;;;;;;5.72;3.55;;;;;;;11.21;100.00;95681.94;5030732;28;20423;-75
2021/08/27 01:23:21;;;;;;;6.28;3.50;;;;;;;11.24;100.00;95680.91;5032141;28;20414;-75
2021/08/27 01:25:51;;;;;;;4.20;3.53;;;;;;;11.15;100.00;95679.75;5031785;28;20839;-75
2021/08/27 01:28:20;;;;;;;7.47;3.88;;;;;;;11.14;100.00;95675.50;5031949;28;20466;-75
2021/08/27 01:30:59;;;;;;;4.70;3.38;;;;;;;11.13;100.00;95686.81;5032122;28;20506;-76
2021/08/27 01:33:26;;;;;;;4.20;3.17;;;;;;;11.09;100.00;95675.81;5031816;28;20897;-76
2021/08/27 01:35:56;;;;;;;5.38;3.25;;;;;;;11.10;100.00;95681.81;5030977;28;20411;-76
2021/08/27 01:38:26;;;;;;;5.47;3.58;;;;;;;11.10;100.00;95676.66;5031878;28;20419;-75
2021/08/27 01:40:54;;;;;;;6.57;3.53;;;;;;;11.04;100.00;95683.03;5030561;28;20932;-75
2021/08/27 01:43:22;;;;;;;4.63;3.25;;;;;;;11.12;100.00;95674.75;5031852;28;20411;-75
2021/08/27 01:45:49;;;;;;;5.25;3.50;;;;;;;11.13;100.00;95684.22;5030232;28;20440;-75
2021/08/27 01:48:15;;;;;;;5.60;3.28;;;;;;;11.19;100.00;95688.16;5030156;28;20909;-76
2021/08/27 01:50:42;;;;;;;4.32;3.30;;;;;;;11.24;100.00;95684.34;5031659;28;20422;-75
2021/08/27 01:53:09;;;;;;;8.82;3.83;;;;;;;11.29;100.00;95681.44;5030703;28;20979;-75
2021/08/27 01:55:35;;;;;;;5.13;3.15;;;;;;;11.36;100.00;95683.50;5029869;28;21286;-75
2021/08/27 01:58:03;;;;;;;4.70;3.08;;;;;;;11.46;100.00;95680.28;5031544;28;20453;-75
2021/08/27 02:00:29;;;;;;;4.70;2.87;;;;;;;11.59;100.00;95686.31;5030201;28;20501;-75
2021/08/27 02:02:57;;;;;;;7.75;3.38;;;;;;;11.63;100.00;95691.16;5031311;28;20407;-76
2021/08/27 02:05:23;;;;;;;4.93;3.53;;;;;;;11.61;100.00;95692.22;5029387;28;20948;-75
2021/08/27 02:07:49;;;;;;;6.00;3.30;;;;;;;11.55;100.00;95690.03;5029826;28;20427;-75
2021/08/27 02:10:15;;;;;;;3.80;3.13;;;;;;;11.44;100.00;95687.34;5031212;28;20422;-75
2021/08/27 02:12:41;;;;;;;4.15;3.20;;;;;;;11.39;100.00;95692.84;5029843;28;20912;-76
2021/08/27 02:15:07;;;;;;;4.03;3.03;;;;;;;11.39;100.00;95687.66;5031125;28;20472;-75
2021/08/27 02:17:33;;;;;;;4.47;3.33;;;;;;;11.23;100.00;95689.59;5030408;28;20462;-75
2021/08/27 02:19:59;;;;;;;4.37;3.13;;;;;;;11.11;100.00;95689.50;5029894;28;20940;-75
2021/08/27 02:22:28;;;;;;;6.78;3.35;;;;;;;11.24;100.00;95683.50;5029727;28;20421;-75
2021/08/27 02:24:57;;;;;;;5.77;3.33;;;;;;;11.26;100.00;95686.81;5029791;28;20767;-75
2021/08/27 02:27:24;;;;;;;8.18;3.40;;;;;;;11.26;100.00;95686.81;5030327;28;20411;-75
2021/08/27 02:29:52;;;;;;;4.70;3.20;;;;;;;11.34;100.00;95684.53;5030483;28;20411;-75
2021/08/27 02:32:19;;;;;;;4.22;3.25;;;;;;;11.43;100.00;95683.94;5030926;28;20505;-75
2021/08/27 02:34:46;;;;;;;5.05;3.20;;;;;;;11.46;100.00;95685.47;5030701;28;20434;-75
2021/08/27 02:37:15;;;;;;;5.10;2.92;;;;;;;11.51;100.00;95689.41;5029364;28;20828;-75
2021/08/27 02:39:41;;;;;;;3.40;2.85;;;;;;;11.48;100.00;95686.19;5031182;28;20423;-76
2021/08/27 02:42:08;;;;;;;5.70;3.70;;;;;;;11.46;100.00;95691.50;5031168;28;20514;-75
2021/08/27 02:44:35;;;;;;;4.50;3.40;;;;;;;11.36;100.00;95693.06;5031105;28;20411;-75
2021/08/27 02:47:00;;;;;;;5.68;3.42;;;;;;;11.42;100.00;95687.47;5030070;28;20873;-75
2021/08/27 02:49:26;;;;;;;4.25;3.13;;;;;;;11.43;100.00;95689.13;5029450;28;20498;-75
2021/08/27 02:51:59;;;;;;;5.72;3.25;;;;;;;11.49;100.00;95693.88;5030764;28;20995;-75
2021/08/27 02:54:30;;;;;;;6.25;3.28;;;;;;;11.54;100.00;95697.00;5030714;28;20517;-75
2021/08/27 02:57:02;;;;;;;5.77;3.67;;;;;;;11.58;100.00;95695.03;5029069;28;20782;-75
2021/08/27 02:59:28;;;;;;;5.85;3.47;;;;;;;11.62;100.00;95696.47;5030941;28;20502;-75
2021/08/27 03:01:57;;;;;;;5.97;3.33;;;;;;;11.56;100.00;95691.69;5029414;28;20415;-75
2021/08/27 03:04:33;;;;;;;5.63;3.00;;;;;;;11.59;100.00;95694.91;5032090;28;20430;-75
2021/08/27 03:07:07;;;;;;;8.80;3.87;;;;;;;11.49;100.00;95688.69;5034259;28;20509;-75
2021/08/27 03:09:39;;;;;;;8.35;3.25;;;;;;;11.48;100.00;95692.22;5033233;28;20940;-75
2021/08/27 03:12:06;;;;;;;5.78;3.03;;;;;;;11.48;100.00;95686.19;5034605;28;20557;-75
2021/08/27 03:14:36;;;;;;;6.38;3.40;;;;;;;11.44;100.00;95698.53;5034332;28;20442;-75
2021/08/27 03:17:07;;;;;;;6.28;3.72;;;;;;;11.45;100.00;95683.81;5033853;28;20422;-76
2021/08/27 03:19:40;;;;;;;8.52;3.80;;;;;;;11.46;100.00;95688.06;5034372;28;20434;-75
2021/08/27 03:22:11;;;;;;;7.93;3.47;;;;;;;11.37;100.00;95690.34;5034348;28;20826;-75
2021/08/27 03:24:41;;;;;;;5.95;3.88;;;;;;;11.37;100.00;95692.94;5034441;28;20784;-76
2021/08/27 03:27:10;;;;;;;5.88;3.85;;;;;;;11.34;100.00;95693.13;5034134;28;20433;-76
2021/08/27 03:29:43;;;;;;;7.75;4.32;;;;;;;11.32;100.00;95700.19;5033691;28;20442;-76
2021/08/27 03:32:10;;;;;;;5.77;3.70;;;;;;;11.26;100.00;95690.22;5032843;28;20426;-76
2021/08/27 03:34:40;;;;;;;5.40;3.53;;;;;;;11.18;100.00;95689.09;5034021;28;20426;-76
2021/08/27 03:37:06;;;;;;;6.25;3.35;;;;;;;11.31;100.00;95685.59;5033726;28;20916;-75
2021/08/27 03:39:32;;;;;;;4.82;2.83;;;;;;;11.26;100.00;95692.81;5034169;28;20411;-75
2021/08/27 03:42:01;;;;;;;5.10;3.43;;;;;;;11.23;100.00;95692.19;5026450;28;21092;-76
2021/08/27 03:44:27;;;;;;;5.15;2.92;;;;;;;11.34;100.00;95685.34;5033237;28;20501;-75
2021/08/27 03:46:53;;;;;;;6.35;3.33;;;;;;;11.46;100.00;95682.88;5024664;28;20818;-76
2021/08/27 03:49:19;;;;;;;4.37;3.30;;;;;;;11.45;100.00;95684.63;5031779;28;20492;-75
2021/08/27 03:51:46;;;;;;;5.80;3.13;;;;;;;11.38;100.00;95688.56;5033676;28;20425;-76
2021/08/27 03:54:13;;;;;;;7.32;2.97;;;;;;;11.24;100.00;95694.72;5035282;28;20469;-75
2021/08/27 03:56:39;;;;;;;5.88;2.58;;;;;;;11.19;100.00;95691.56;5038165;28;20426;-75
2021/08/27 03:59:05;;;;;;;6.47;2.90;;;;;;;11.17;100.00;95695.22;5037770;28;20480;-75
2021/08/27 04:01:33;;;;;;;7.13;2.70;;;;;;;11.23;100.00;95692.19;5034540;28;20461;-75
2021/08/27 04:03:59;;;;;;;3.90;2.70;;;;;;;11.22;100.00;95686.19;5033639;28;20423;-75
2021/08/27 04:06:25;;;;;;;8.73;2.93;;;;;;;11.19;100.00;95675.19;5032749;28;20415;-75
2021/08/27 04:08:51;;;;;;;3.75;2.83;;;;;;;11.26;100.00;95677.28;5033601;28;20426;-75
2021/08/27 04:11:18;;;;;;;4.97;2.50;;;;;;;11.21;100.00;95694.91;5033557;28;20502;-75
2021/08/27 04:13:44;;;;;;;5.88;2.42;;;;;;;11.14;100.00;95688.47;5032086;28;20496;-75
2021/08/27 04:16:10;;;;;;;3.47;2.15;;;;;;;11.14;100.00;95689.28;5032282;28;20936;-75
2021/08/27 04:18:36;;;;;;;3.38;2.40;;;;;;;11.26;100.00;95692.81;5033314;28;20426;-75
2021/08/27 04:21:02;;;;;;;5.13;2.67;;;;;;;11.35;100.00;95694.00;5032897;28;20497;-75
2021/08/27 04:23:29;;;;;;;4.28;2.65;;;;;;;11.24;100.00;95699.88;5031968;28;20913;-75
2021/08/27 04:25:54;;;;;;;4.93;2.60;;;;;;;11.32;100.00;95696.78;5032862;28;20833;-75
2021/08/27 04:28:20;;;;;;;3.93;2.33;;;;;;;11.45;100.00;95701.97;5033215;28;20422;-75
2021/08/27 04:30:45;;;;;;;4.40;2.60;;;;;;;11.48;100.00;95702.59;5031759;28;20430;-75
2021/08/27 04:33:11;;;;;;;6.20;2.73;;;;;;;11.33;100.00;95707.03;5032919;28;20917;-75
2021/08/27 04:35:38;;;;;;;3.80;2.43;;;;;;;11.27;100.00;95709.22;5032081;28;20419;-75
2021/08/27 04:38:03;;;;;;;5.47;2.85;;;;;;;11.37;100.00;95710.25;5031693;28;20430;-75
2021/08/27 04:40:30;;;;;;;3.53;2.27;;;;;;;11.47;100.00;95698.34;5032652;28;20411;-75
2021/08/27 04:42:55;;;;;;;5.63;2.65;;;;;;;11.60;100.00;95713.91;5027848;28;20419;-75
2021/08/27 04:45:21;;;;;;;4.53;2.67;;;;;;;11.53;100.00;95718.69;5032086;28;20836;-75
2021/08/27 04:47:46;;;;;;;4.20;2.67;;;;;;;11.30;100.00;95719.38;5029510;28;20818;-75
2021/08/27 04:50:13;;;;;;;5.50;2.90;;;;;;;11.27;100.00;95724.75;5047931;28;20422;-75
2021/08/27 04:52:39;;;;;;;6.05;3.40;;;;;;;11.23;100.00;95718.94;5032610;28;20423;-75
2021/08/27 04:55:05;;;;;;;6.68;4.25;;;;;;;11.23;100.00;95718.13;5031360;28;20419;-75
2021/08/27 04:57:32;;;;;;;8.93;3.67;;;;;;;11.24;100.00;95725.00;5032026;28;20427;-76
2021/08/27 04:59:58;;;;;;;4.32;3.42;;;;;;;11.25;100.00;95722.28;5034385;28;20462;-77
2021/08/27 05:02:23;;;;;;;8.00;3.67;;;;;;;11.29;100.00;95726.34;5035012;28;20921;-74
2021/08/27 05:04:49;;;;;;;14.17;3.87;;;;;;;11.40;100.00;95728.22;5031843;28;20415;-75
2021/08/27 05:07:14;;;;;;;6.10;3.38;;;;;;;11.42;100.00;95728.97;5030823;28;20470;-74
2021/08/27 05:09:40;;;;;;;7.97;3.40;;;;;;;11.36;100.00;95725.00;5041757;28;20463;-75
2021/08/27 05:12:07;;;;;;;4.87;3.07;;;;;;;11.50;100.00;95729.25;5032441;28;20411;-75
2021/08/27 05:14:34;;;;;;;6.63;4.20;;;;;;;11.30;100.00;95733.16;5032312;28;20423;-75
2021/08/27 05:17:00;;;;;;;5.87;3.93;;;;;;;11.47;100.00;95732.06;5030319;28;20537;-75
2021/08/27 05:19:25;;;;;;;3.92;3.50;;;;;;;11.55;100.00;95736.72;5030825;28;20415;-74
2021/08/27 05:21:50;;;;;;;6.32;3.55;;;;;;;11.60;100.00;95732.06;5030811;28;20502;-74
2021/08/27 05:24:16;;;;;;;7.73;3.50;;;;;;;11.70;100.00;95738.28;5031966;28;20418;-77
2021/08/27 05:26:41;;;;;;;4.37;3.23;;;;;;;11.77;100.00;95739.53;5032578;28;20419;-74
2021/08/27 05:29:07;;;;;;;6.07;3.87;;;;;;;11.81;100.00;95745.34;5031692;28;20426;-76
2021/08/27 05:31:34;;;;;;;4.97;3.90;;;;;;;11.57;100.00;95745.25;5031822;28;20426;-75
2021/08/27 05:33:59;;;;;;;7.07;3.70;;;;;;;11.59;100.00;95751.16;5046949;28;20423;-75
2021/08/27 05:36:25;;;;;;;5.63;4.07;;;;;;;11.56;100.00;95751.34;5031295;28;20518;-76
2021/08/27 05:38:51;;;;;;;5.22;3.72;;;;;;;11.65;100.00;95755.13;5031875;28;20411;-76
2021/08/27 05:41:16;;;;;;;8.88;4.15;;;;;;;11.51;100.00;95754.25;5031771;28;20498;-77
2021/08/27 05:43:42;;;;;;;6.07;3.97;;;;;;;11.57;100.00;95750.44;5030739;28;20990;-76
2021/08/27 05:46:07;;;;;;;6.05;4.07;;;;;;;11.55;100.00;95760.91;5032076;28;20974;-76
2021/08/27 05:48:34;;;;;;;6.57;4.03;;;;;;;11.47;100.00;95764.94;5032160;28;20773;-77
2021/08/27 05:51:00;;;;;;;12.23;5.15;;;;;;;11.44;100.00;95765.16;5034018;28;20832;-76
2021/08/27 05:53:25;;;;;;;8.70;4.47;;;;;;;11.49;100.00;95774.25;5031283;28;20411;-74
2021/08/27 05:55:51;;;;;;;9.33;4.37;;;;;;;11.53;100.00;95777.50;5031630;28;20469;-75
2021/08/27 05:58:16;;;;;;;4.70;3.93;;;;;;;11.61;100.00;95765.69;5031308;28;20788;-76
2021/08/27 06:00:42;;;;;;;10.67;3.87;;;;;;;11.68;100.00;95760.06;5031323;28;20964;-75
2021/08/27 06:03:07;;;;;;;6.33;4.03;;;;;;;11.68;100.00;95770.44;5031128;28;20502;-75
2021/08/27 06:05:34;;;;;;;6.25;4.22;;;;;;;11.52;100.00;95766.28;5030176;28;20411;-75
2021/08/27 06:07:59;;;;;;;7.95;4.10;;;;;;;11.54;100.00;95766.22;5029984;28;20419;-76
2021/08/27 06:10:25;;;;;;;8.82;4.90;;;;;;;11.43;100.00;95772.09;5031231;28;20927;-77
2021/08/27 06:12:50;;;;;;;10.40;4.93;;;;;;;11.41;100.00;95767.94;5030748;28;20423;-76
2021/08/27 06:15:16;;;;;;;7.73;4.73;;;;;;;11.44;100.00;95776.34;5030781;28;20419;-76
2021/08/27 06:17:42;;;;;;;7.90;4.88;;;;;;;11.49;100.00;95786.41;5029666;28;20921;-76
2021/08/27 06:20:09;;;;;;;7.88;4.95;;;;;;;11.38;100.00;95785.38;5030700;28;20418;-76
2021/08/27 06:22:36;;;;;;;6.20;4.50;;;;;;;11.42;100.00;95783.41;5030516;28;20423;-75
2021/08/27 06:25:02;;;;;;;6.32;4.60;;;;;;;11.38;100.00;95787.97;5030850;28;20422;-76
2021/08/27 06:27:27;;;;;;;11.20;5.05;;;;;;;11.45;100.00;95792.72;5030041;28;20477;-76
2021/08/27 06:29:53;;;;;;;7.00;4.80;;;;;;;11.38;100.00;95794.88;5029184;28;20427;-76
2021/08/27 06:32:19;;;;;;;8.07;4.60;;;;;;;11.45;100.00;95795.31;5029372;28;20426;-75
2021/08/27 06:34:45;;;;;;;6.03;4.38;;;;;;;11.46;100.00;95791.78;5029451;28;20426;-76
2021/08/27 06:37:11;;;;;;;7.43;4.25;;;;;;;11.43;100.00;95798.03;5028830;28;20554;-77
2021/08/27 06:39:38;;;;;;;8.80;4.70;;;;;;;11.45;100.00;95795.31;5030456;28;20418;-76
2021/08/27 06:42:04;;;;;;;6.15;4.18;;;;;;;11.61;100.00;95801.19;5031063;28;20422;-76
2021/08/27 06:44:30;;;;;;;7.13;3.92;;;;;;;11.68;100.00;95801.56;5030233;28;20418;-76
2021/08/27 06:46:55;;;;;;;6.43;4.50;;;;;;;11.55;100.00;95798.97;5029883;28;20415;-76
2021/08/27 06:49:20;;;;;;;5.55;4.03;;;;;;;11.61;100.00;95802.00;5045874;28;20506;-77
2021/08/27 06:51:47;;;;;;;6.40;4.50;;;;;;;11.53;100.00;95806.03;5029407;28;20481;-77
2021/08/27 06:54:12;;;;;;;11.00;4.43;;;;;;;11.59;100.00;95808.22;5030598;28;20686;-76
2021/08/27 06:56:39;;;;;;;6.40;4.47;;;;;;;11.60;100.00;95802.09;5031539;28;20507;-76
2021/08/27 06:59:05;;;;;;;5.95;4.57;;;;;;;11.53;100.00;95804.28;5045810;28;20446;-76
2021/08/27 07:01:30;;;;;;;7.13;4.27;;;;;;;11.52;100.00;95804.38;5051259;28;20459;-76
2021/08/27 07:03:56;;;;;;;11.43;4.80;;;;;;;11.61;100.00;95809.78;5031694;28;20835;-77
2021/08/27 07:06:21;;;;;;;5.93;4.30;;;;;;;11.65;100.00;95807.00;5031836;28;20419;-76
2021/08/27 07:08:47;;;;;;;7.20;4.77;;;;;;;11.69;100.00;95808.44;5031267;28;20928;-76
2021/08/27 07:11:15;;;;;;;19.42;4.70;;;;;;;11.81;100.00;95808.44;5031269;28;20461;-76
2021/08/27 07:13:42;;;;;;;9.43;5.18;;;;;;;11.78;100.00;95806.06;5030737;28;20430;-77
2021/08/27 07:16:08;;;;;;;7.85;4.90;;;;;;;11.89;100.00;95805.38;5029769;28;20928;-76
2021/08/27 07:18:33;;;;;;;13.70;4.87;;;;;;;12.01;100.00;95807.13;5030334;28;20427;-76
2021/08/27 07:20:59;;;;;;;6.87;4.73;;;;;;;12.11;100.00;95799.56;5030355;28;20422;-76
2021/08/27 07:23:24;;;;;;;6.83;4.63;;;;;;;12.18;100.00;95806.00;5030403;28;20510;-76
2021/08/27 07:25:50;;;;;;;8.63;5.00;;;;;;;12.15;100.00;95815.75;5029687;28;20414;-75
2021/08/27 07:28:16;;;;;;;6.97;5.00;;;;;;;12.31;100.00;95816.34;5030047;28;20506;-76
2021/08/27 07:30:44;;;;;;;9.23;5.37;;;;;;;12.22;100.00;95811.81;5030168;28;20481;-75
2021/08/27 07:33:10;;;;;;;7.68;5.05;;;;;;;12.18;100.00;95810.34;5030133;28;20509;-75
2021/08/27 07:35:35;;;;;;;9.40;5.30;;;;;;;12.11;100.00;95815.13;5028608;28;20510;-75
2021/08/27 07:38:01;;;;;;;9.52;5.95;;;;;;;12.24;100.00;95815.13;5029249;28;20411;-77
2021/08/27 07:40:27;;;;;;;8.57;6.03;;;;;;;12.22;100.00;95812.63;5032140;28;20419;-77
2021/08/27 07:42:52;;;;;;;9.63;6.32;;;;;;;12.15;100.00;95823.53;5032216;28;20831;-77
2021/08/27 07:45:18;;;;;;;7.73;6.23;;;;;;;12.49;100.00;95820.28;5030761;28;20421;-76
2021/08/27 07:47:45;;;;;;;7.72;6.28;;;;;;;12.54;100.00;95826.00;5033325;28;20784;-77
2021/08/27 07:50:12;;;;;;;8.50;5.20;;;;;;;12.28;100.00;95826.97;5033886;28;20889;-76
2021/08/27 07:52:37;;;;;;;7.07;5.15;;;;;;;12.32;100.00;95829.25;5032410;28;20476;-76
2021/08/27 07:55:04;;;;;;;9.23;5.18;;;;;;;12.59;98.87;95829.09;5032421;28;20773;-75
2021/08/27 07:57:30;;;;;;;5.13;3.53;;;;;;;12.70;93.20;95833.53;5032446;28;20785;-75
2021/08/27 07:59:55;;;;;;;6.53;3.80;;;;;;;12.76;95.34;95833.13;5032466;28;20435;-77
2021/08/27 08:02:20;;;;;;;6.97;3.67;;;;;;;13.19;90.59;95830.03;5050536;28;20427;-77
2021/08/27 08:04:47;;;;;;;6.73;3.43;;;;;;;13.31;89.02;95821.41;5036473;28;20939;-78
2021/08/27 08:07:13;;;;;;;6.47;2.83;;;;;;;13.42;88.95;95828.44;5036607;28;20892;-76
2021/08/27 08:09:39;;;;;;;5.13;3.03;;;;;;;13.64;89.01;95829.44;5032217;28;20518;-76
2021/08/27 08:12:04;;;;;;;4.77;2.80;;;;;;;13.36;88.43;95831.47;5032187;28;20518;-77
2021/08/27 08:14:30;;;;;;;5.03;2.50;;;;;;;13.47;86.18;95834.13;5033954;28;20796;-77
2021/08/27 08:16:56;;;;;;;5.70;2.53;;;;;;;13.61;84.06;95827.06;5033910;28;20454;-76
2021/08/27 08:19:21;;;;;;;4.83;2.47;;;;;;;14.19;84.05;95827.91;5033890;28;20423;-77
2021/08/27 08:21:48;;;;;;;4.23;2.13;;;;;;;14.29;82.94;95821.88;5035822;28;20469;-77
2021/08/27 08:24:14;;;;;;;6.05;2.20;;;;;;;14.24;84.13;95826.63;5037189;28;20415;-77
2021/08/27 08:26:39;;;;;;;9.13;2.43;;;;;;;13.80;84.04;95837.78;5033408;28;20768;-77
2021/08/27 08:29:05;;;;;;;2.90;1.90;;;;;;;13.53;83.62;95838.88;5032858;28;20449;-77
2021/08/27 08:31:31;;;;;;;4.43;1.63;;;;;;;13.26;81.02;95831.28;5048894;28;20509;-77
2021/08/27 08:33:57;;;;;;;15.57;2.88;;;;;;;13.11;81.86;95834.97;5032922;28;20510;-76
2021/08/27 08:36:23;;;;;;;3.03;1.63;;;;;;;13.11;82.48;95831.56;5047661;28;20502;-77
2021/08/27 08:38:51;;;;;;;26.67;6.37;;;;;;;13.14;83.47;95836.53;5033019;28;20415;-76
2021/08/27 08:41:19;;;;;;;14.30;3.65;;;;;;;13.78;79.36;95830.06;5033223;28;20502;-77
2021/08/27 08:43:46;;;;;;;5.63;1.70;;;;;;;13.97;78.42;95837.31;5031885;28;20512;-76
2021/08/27 08:46:13;;;;;;;2.58;1.60;;;;;;;14.85;80.13;95841.06;5031653;28;20451;-77
2021/08/27 08:48:43;;;;;;;2.30;1.30;;;;;;;15.51;81.57;95835.81;5032340;28;20423;-77
2021/08/27 08:51:09;;;;;;;6.07;1.83;;;;;;;15.34;70.73;95835.38;5032832;28;20411;-75
2021/08/27 08:53:37;;;;;;;2.83;1.30;;;;;;;15.56;71.56;95836.25;5031244;28;20888;-76
2021/08/27 08:56:05;;;;;;;3.05;1.55;;;;;;;15.45;75.02;95839.72;5031185;28;20427;-76
2021/08/27 08:58:31;;;;;;;6.80;1.45;;;;;;;15.41;73.67;95833.94;5030964;28;20827;-75
2021/08/27 09:00:57;;;;;;;5.03;1.38;;;;;;;14.91;76.13;95843.22;5030976;28;20457;-76
2021/08/27 09:03:22;;;;;;;3.15;1.35;;;;;;;14.44;75.72;95845.91;5032430;28;20443;-75
2021/08/27 09:05:48;;;;;;;2.58;1.40;;;;;;;14.24;76.94;95844.03;5031739;28;20468;-76
2021/08/27 09:08:15;;;;;;;4.18;1.40;;;;;;;14.04;73.18;95837.69;5032719;28;20909;-77
2021/08/27 09:10:42;;;;;;;3.03;1.27;;;;;;;14.43;74.09;95843.44;5032448;28;20442;-76
2021/08/27 09:13:09;;;;;;;2.92;1.50;;;;;;;14.99;73.44;95846.88;5032351;28;20477;-77
2021/08/27 09:15:35;;;;;;;6.22;1.35;;;;;;;15.24;69.04;95839.69;5032275;28;20426;-77
2021/08/27 09:18:05;;;;;;;3.38;1.48;;;;;;;15.53;72.75;95841.72;5032666;28;20414;-77
2021/08/27 09:20:30;;;;;;;3.70;1.40;;;;;;;14.84;70.51;95849.84;5033329;28;20494;-77
2021/08/27 09:22:59;;;;;;;2.40;1.10;;;;;;;14.48;70.81;95852.56;5034758;28;20449;-77
2021/08/27 09:25:26;;;;;;;4.32;1.38;;;;;;;13.89;74.09;95855.31;5031655;28;20419;-77
2021/08/27 09:28:11;;;;;;;3.90;1.67;;;;;;;13.90;75.56;95856.94;5032198;28;20885;-76
2021/08/27 09:30:50;;;;;;;2.10;1.20;;;;;;;14.45;72.61;95852.78;5013297;28;20517;-77
2021/08/27 09:33:21;;;;;;;3.38;1.30;;;;;;;15.01;72.86;95862.38;5012394;28;20420;-77
2021/08/27 09:35:58;;;;;;;2.47;1.40;;;;;;;15.27;68.39;95862.09;5015337;28;20419;-77
2021/08/27 09:38:25;;;;;;;2.63;1.40;;;;;;;15.79;68.52;95852.66;5032263;28;20415;-77
2021/08/27 09:40:59;;;;;;;3.65;1.60;;;;;;;15.87;70.07;95861.56;5032001;28;20446;-77
2021/08/27 09:43:26;;;;;;;4.18;1.40;;;;;;;15.51;67.79;95862.75;5031912;28;20984;-76
2021/08/27 09:45:52;;;;;;;3.00;1.58;;;;;;;15.03;70.79;95865.72;5030030;28;20423;-76
2021/08/27 09:48:17;;;;;;;3.40;1.30;;;;;;;14.98;72.04;95867.81;5031382;28;20438;-75
2021/08/27 09:50:46;;;;;;;2.53;1.20;;;;;;;14.86;70.45;95866.19;5029821;28;20917;-75
2021/08/27 09:53:13;;;;;;;5.60;1.63;;;;;;;14.67;70.84;95858.97;5031379;28;20503;-75
2021/08/27 09:55:53;;;;;;;2.50;1.50;;;;;;;14.51;73.73;95862.78;5030742;28;20419;-76
2021/08/27 09:58:19;;;;;;;3.78;1.60;;;;;;;14.39;74.23;95873.28;5029705;28;20920;-75
2021/08/27 10:00:59;;;;;;;5.32;1.70;;;;;;;14.29;76.51;95867.94;5030110;28;20418;-76
2021/08/27 10:03:25;;;;;;;3.13;1.80;;;;;;;14.25;75.81;95872.56;5033033;28;20435;-76
2021/08/27 10:05:54;;;;;;;3.97;1.60;;;;;;;14.09;75.91;95866.84;5034988;28;20690;-76
2021/08/27 10:08:20;;;;;;;5.93;1.80;;;;;;;14.16;75.62;95875.00;5033989;28;20805;-76
2021/08/27 10:10:49;;;;;;;4.55;2.08;;;;;;;14.37;74.77;95864.75;5044959;28;20461;-75
2021/08/27 10:13:14;;;;;;;4.40;1.80;;;;;;;14.74;75.63;95863.59;5049291;28;20916;-75
2021/08/27 10:15:41;;;;;;;7.20;1.90;;;;;;;15.22;75.17;95868.50;5049597;28;20465;-75
2021/08/27 10:18:10;;;;;;;4.35;1.70;;;;;;;15.20;71.25;95867.81;5049760;28;20512;-75
2021/08/27 10:20:37;;;;;;;4.40;1.95;;;;;;;14.83;70.05;95871.63;5051099;28;20428;-75
2021/08/27 10:23:03;;;;;;;5.93;1.70;;;;;;;15.11;70.64;95865.09;5050849;28;20421;-75
2021/08/27 10:25:29;;;;;;;3.15;1.55;;;;;;;15.10;66.49;95868.66;5048240;28;20478;-75
2021/08/27 10:27:55;;;;;;;4.30;1.60;;;;;;;15.55;67.10;95855.50;5029675;28;20427;-75
2021/08/27 10:30:51;;;;;;;6.10;1.58;;;;;;;15.60;67.21;95850.72;5011404;28;20449;-76
2021/08/27 10:33:17;;;;;;;2.05;1.42;;;;;;;15.40;68.27;95849.72;5009808;28;20429;-75
2021/08/27 10:35:51;;;;;;;2.65;1.30;;;;;;;15.58;65.49;95845.63;5010221;28;21391;-74
2021/08/27 10:38:42;;;;;;;5.63;1.35;;;;;;;15.17;63.06;95852.41;5011069;28;20420;-74
2021/08/27 10:41:10;;;;;;;6.72;1.75;;;;;;;15.58;65.07;95850.84;5026531;28;20411;-76
2021/08/27 10:43:52;;;;;;;2.70;1.50;;;;;;;15.69;62.60;95845.59;5029514;28;20426;-75
2021/08/27 10:46:19;;;;;;;3.10;1.40;;;;;;;15.93;61.78;95842.75;5030402;28;20419;-76
2021/08/27 10:48:50;;;;;;;3.55;1.65;;;;;;;16.08;58.79;95843.25;5029285;28;20418;-75
2021/08/27 10:51:32;;;;;;;2.72;1.60;;;;;;;16.33;64.41;95843.81;5030635;28;20442;-76
2021/08/27 10:53:57;;;;;;;5.50;1.90;;;;;;;15.94;62.49;95840.97;5029222;28;20423;-75
2021/08/27 10:56:41;;;;;;;4.72;1.30;;;;;;;15.58;61.05;95842.19;5029942;28;20441;-75
2021/08/27 10:59:08;;;;;;;2.57;1.53;;;;;;;15.64;61.38;95846.88;5030487;28;20425;-75
2021/08/27 11:01:36;;;;;;;4.97;1.50;;;;;;;15.44;62.85;95843.31;5030694;28;20430;-76
2021/08/27 11:04:13;;;;;;;4.05;1.35;;;;;;;15.57;65.11;95850.97;5030552;28;20506;-76
2021/08/27 11:06:44;;;;;;;5.15;1.85;;;;;;;15.41;66.35;95856.59;5046422;28;20423;-78
2021/08/27 11:09:14;;;;;;;4.82;1.52;;;;;;;15.15;67.74;95862.13;5041955;28;20903;-76
2021/08/27 11:11:39;;;;;;;11.13;2.30;;;;;;;14.98;68.69;95865.22;5030437;28;20880;-75
2021/08/27 11:14:13;;;;;;;3.67;1.60;;;;;;;14.71;71.39;95873.44;5030588;28;20462;-76
2021/08/27 11:16:40;;;;;;;4.80;1.80;;;;;;;14.36;72.50;95869.13;5030176;28;20900;-76
2021/08/27 11:19:25;;;;;;;11.10;3.00;;;;;;;14.10;74.89;95872.88;5045733;28;20419;-76
2021/08/27 11:21:57;;;;;;;3.63;1.65;;;;;;;14.01;75.51;95863.97;5030359;28;20423;-75
2021/08/27 11:24:24;;;;;;;8.23;1.80;;;;;;;13.98;76.74;95866.81;5046839;28;20430;-75
2021/08/27 11:26:57;;;;;;;9.80;2.17;;;;;;;13.99;77.23;95866.69;5033412;28;20522;-76
2021/08/27 11:29:28;;;;;;;10.03;2.00;;;;;;;14.11;77.15;95869.31;5033899;28;20506;-76